Time;durP1;ratioP1;P1;durP2;ratioP2;P2;SDS_P1;SDS_P2;PMS_P1;PMS_P2;Temp;Humidity;BMP_temperature;BMP_pressure;BME280_temperature;BME280_humidity;BME280_pressure;Samples;Min_cycle;Max_cycle;Signal;HPM_P1;HPM_P2
2024/02/25 00:02:35;;;;;;;0.30;0.30;;;5.30;99.90;;;;;;4426035;32;20549;-74
2024/02/25 00:05:00;;;;;;;0.43;0.43;;;5.20;99.90;;;;;;4426368;32;20069;-75
2024/02/25 00:07:26;;;;;;;1.12;0.50;;;5.20;99.90;;;;;;4425143;32;20081;-74
2024/02/25 00:09:52;;;;;;;0.30;0.30;;;5.10;99.90;;;;;;4425197;32;20077;-74
2024/02/25 00:12:19;;;;;;;0.57;0.57;;;5.10;99.90;;;;;;4424829;32;20101;-74
2024/02/25 00:14:44;;;;;;;0.40;0.40;;;5.20;99.90;;;;;;4423181;32;20442;-74
2024/02/25 00:17:10;;;;;;;0.28;0.28;;;5.20;99.90;;;;;;4424520;32;21047;-74
2024/02/25 00:19:35;;;;;;;0.52;0.50;;;5.30;99.90;;;;;;4426114;32;20458;-74
2024/02/25 00:22:02;;;;;;;0.52;0.52;;;5.30;99.90;;;;;;4425058;32;20069;-75
2024/02/25 00:24:27;;;;;;;0.60;0.60;;;5.50;99.90;;;;;;4423418;32;20073;-74
2024/02/25 00:26:53;;;;;;;0.30;0.30;;;5.50;99.90;;;;;;4423568;32;20512;-74
2024/02/25 00:29:19;;;;;;;0.40;0.40;;;5.50;99.90;;;;;;4424086;32;20077;-75
2024/02/25 00:31:44;;;;;;;0.30;0.30;;;5.40;99.90;;;;;;4424913;32;20423;-74
2024/02/25 00:34:10;;;;;;;0.30;0.30;;;5.40;99.90;;;;;;4424756;32;20081;-74
2024/02/25 00:36:38;;;;;;;2.28;0.75;;;5.30;99.90;;;;;;4423401;32;20087;-74
2024/02/25 00:39:03;;;;;;;0.50;0.50;;;5.30;99.90;;;;;;4423127;32;20789;-74
2024/02/25 00:41:29;;;;;;;0.43;0.43;;;5.20;99.90;;;;;;4423846;32;20139;-76
2024/02/25 00:43:55;;;;;;;0.30;0.30;;;5.20;99.90;;;;;;4421742;32;20128;-75
2024/02/25 00:46:20;;;;;;;0.30;0.30;;;5.40;99.90;;;;;;4421685;32;20077;-75
2024/02/25 00:48:46;;;;;;;0.40;0.40;;;5.30;99.90;;;;;;4423143;32;20309;-75
2024/02/25 00:51:11;;;;;;;0.75;0.75;;;5.20;99.90;;;;;;4423434;32;20530;-79
2024/02/25 00:53:37;;;;;;;0.88;0.88;;;5.10;99.90;;;;;;4423248;32;20128;-79
2024/02/25 00:56:02;;;;;;;0.80;0.75;;;5.10;99.90;;;;;;4423978;32;20423;-78
2024/02/25 00:58:28;;;;;;;0.65;0.65;;;5.10;99.90;;;;;;4421958;32;20061;-80
2024/02/25 01:00:54;;;;;;;0.30;0.30;;;5.10;99.90;;;;;;4427150;32;20089;-80
2024/02/25 01:03:20;;;;;;;0.50;0.50;;;5.10;99.90;;;;;;4424552;32;20108;-79
2024/02/25 01:05:45;;;;;;;1.48;1.27;;;5.10;99.90;;;;;;4423459;32;20124;-79
2024/02/25 01:08:11;;;;;;;0.52;0.52;;;5.20;99.90;;;;;;4424595;32;20127;-78
2024/02/25 01:10:37;;;;;;;0.30;0.30;;;5.20;99.90;;;;;;4422471;32;20077;-78
2024/02/25 01:13:02;;;;;;;0.30;0.30;;;5.20;99.90;;;;;;4422952;32;20069;-79
2024/02/25 01:15:28;;;;;;;0.40;0.40;;;5.30;99.90;;;;;;4423485;32;20135;-80
2024/02/25 01:17:53;;;;;;;0.30;0.30;;;5.30;99.90;;;;;;4423025;32;20403;-80
2024/02/25 01:20:19;;;;;;;0.37;0.37;;;5.30;99.90;;;;;;4423956;32;20062;-80
2024/02/25 01:22:44;;;;;;;0.40;0.40;;;5.30;99.90;;;;;;4423834;32;20090;-78
2024/02/25 01:25:11;;;;;;;0.50;0.50;;;5.30;99.90;;;;;;4423171;32;20093;-77
2024/02/25 01:27:36;;;;;;;0.57;0.57;;;5.20;99.90;;;;;;4423709;32;20077;-80
2024/02/25 01:30:04;;;;;;;0.43;0.43;;;5.20;99.90;;;;;;4423049;32;20090;-81
2024/02/25 01:32:29;;;;;;;18.10;3.33;;;5.20;99.90;;;;;;4424698;32;20069;-79
2024/02/25 01:34:54;;;;;;;1.35;1.00;;;5.20;99.90;;;;;;4423871;32;20093;-79
2024/02/25 01:37:20;;;;;;;0.30;0.30;;;5.10;99.90;;;;;;4425472;32;20077;-81
2024/02/25 01:39:46;;;;;;;0.50;0.50;;;5.10;99.90;;;;;;4424527;32;20128;-80
2024/02/25 01:42:11;;;;;;;0.32;0.32;;;5.10;99.90;;;;;;4425637;32;20124;-80
2024/02/25 01:44:59;;;;;;;1.85;0.95;;;5.10;99.90;;;;;;4425578;32;20072;-80
2024/02/25 01:47:25;;;;;;;1.08;0.75;;;5.10;99.90;;;;;;4408749;32;20072;-78
2024/02/25 01:49:51;;;;;;;0.50;0.50;;;5.10;99.90;;;;;;4423504;32;20098;-80
2024/02/25 01:52:19;;;;;;;0.47;0.47;;;5.00;99.90;;;;;;4424350;32;20081;-80
2024/02/25 01:54:45;;;;;;;0.50;0.50;;;5.00;99.90;;;;;;4423680;32;20647;-79
2024/02/25 01:57:12;;;;;;;0.47;0.47;;;5.00;99.90;;;;;;4423628;32;20077;-80
2024/02/25 01:59:38;;;;;;;0.50;0.50;;;5.00;99.90;;;;;;4407211;32;20102;-79
2024/02/25 02:02:05;;;;;;;0.30;0.30;;;5.00;99.90;;;;;;4423481;32;20092;-78
2024/02/25 02:04:32;;;;;;;1.00;0.73;;;5.00;99.90;;;;;;4425095;32;20099;-78
2024/02/25 02:06:59;;;;;;;0.40;0.40;;;5.00;99.90;;;;;;4424373;32;20431;-78
2024/02/25 02:09:26;;;;;;;1.08;0.85;;;5.00;99.90;;;;;;4422641;32;20490;-79
2024/02/25 02:11:59;;;;;;;0.45;0.45;;;5.00;99.90;;;;;;4421998;32;20132;-78
2024/02/25 02:14:25;;;;;;;0.55;0.55;;;4.90;99.90;;;;;;4423657;32;20209;-78
2024/02/25 02:16:51;;;;;;;0.77;0.77;;;4.80;99.90;;;;;;4424204;32;20084;-78
2024/02/25 02:19:17;;;;;;;0.40;0.40;;;4.70;99.90;;;;;;4421921;32;21195;-78
2024/02/25 02:21:43;;;;;;;0.25;0.25;;;4.70;99.90;;;;;;4424600;32;20074;-78
2024/02/25 02:24:08;;;;;;;0.60;0.60;;;4.70;99.90;;;;;;4428539;32;20415;-80
2024/02/25 02:26:34;;;;;;;0.20;0.20;;;4.70;99.90;;;;;;4422251;32;20086;-79
2024/02/25 02:29:00;;;;;;;0.30;0.30;;;4.70;99.90;;;;;;4423062;32;20062;-78
2024/02/25 02:31:25;;;;;;;0.30;0.30;;;4.70;99.90;;;;;;4424570;32;20074;-78
2024/02/25 02:33:52;;;;;;;0.50;0.50;;;4.70;99.90;;;;;;4424046;32;20121;-80
2024/02/25 02:36:18;;;;;;;0.43;0.43;;;4.70;99.90;;;;;;4426434;32;20081;-78
2024/02/25 02:38:43;;;;;;;0.40;0.40;;;4.60;99.90;;;;;;4422079;32;20081;-79
2024/02/25 02:41:10;;;;;;;0.30;0.30;;;4.50;99.90;;;;;;4419829;32;20089;-75
2024/02/25 02:43:36;;;;;;;0.30;0.30;;;4.40;99.90;;;;;;4419523;32;20402;-76
2024/02/25 02:46:02;;;;;;;0.40;0.40;;;4.40;99.90;;;;;;4421089;32;20080;-75
2024/02/25 02:48:29;;;;;;;0.40;0.40;;;4.20;99.90;;;;;;4420382;32;20783;-75
2024/02/25 02:50:56;;;;;;;0.40;0.40;;;4.20;99.90;;;;;;4424189;32;20076;-75
2024/02/25 02:53:21;;;;;;;0.40;0.40;;;4.10;99.90;;;;;;4423229;32;20085;-80
2024/02/25 02:55:47;;;;;;;0.30;0.30;;;4.00;99.90;;;;;;4423532;32;20082;-78
2024/02/25 02:58:12;;;;;;;0.57;0.57;;;4.00;99.90;;;;;;4420534;32;20085;-78
2024/02/25 03:00:39;;;;;;;0.30;0.30;;;4.10;99.90;;;;;;4423887;32;20069;-74
2024/02/25 03:03:04;;;;;;;0.30;0.30;;;4.10;99.90;;;;;;4422085;32;20131;-73
2024/02/25 03:05:30;;;;;;;0.70;0.45;;;4.10;99.90;;;;;;4422573;32;20073;-75
2024/02/25 03:07:55;;;;;;;1.08;0.52;;;4.00;99.90;;;;;;4422556;32;20588;-75
2024/02/25 03:10:21;;;;;;;0.60;0.60;;;3.90;99.90;;;;;;4424101;32;20120;-79
2024/02/25 03:12:48;;;;;;;1.25;1.15;;;3.90;99.90;;;;;;4422735;32;20521;-80
2024/02/25 03:15:13;;;;;;;0.35;0.35;;;3.80;99.90;;;;;;4420651;32;20754;-79
2024/02/25 03:17:40;;;;;;;0.40;0.40;;;3.80;99.90;;;;;;4422864;32;20116;-80
2024/02/25 03:20:07;;;;;;;0.40;0.40;;;3.80;99.90;;;;;;4424289;32;20560;-78
2024/02/25 03:22:33;;;;;;;0.30;0.30;;;3.80;99.90;;;;;;4421325;32;20709;-78
2024/02/25 03:24:58;;;;;;;0.40;0.40;;;3.80;99.90;;;;;;4422199;32;20085;-78
2024/02/25 03:27:24;;;;;;;1.62;1.52;;;3.80;99.90;;;;;;4422963;32;20077;-78
2024/02/25 03:29:49;;;;;;;0.45;0.45;;;3.80;99.90;;;;;;4422316;32;20133;-78
2024/02/25 03:32:16;;;;;;;0.30;0.30;;;3.80;99.90;;;;;;4422796;32;20077;-78
2024/02/25 03:34:41;;;;;;;2.85;1.02;;;3.70;99.90;;;;;;4422713;32;20093;-78
2024/02/25 03:37:07;;;;;;;0.40;0.40;;;3.60;99.90;;;;;;4422692;32;20082;-77
2024/02/25 03:39:32;;;;;;;0.40;0.40;;;3.60;99.90;;;;;;4424509;32;20518;-79
2024/02/25 03:41:58;;;;;;;0.35;0.35;;;3.70;99.90;;;;;;4425275;32;20069;-78
2024/02/25 03:44:26;;;;;;;0.40;0.40;;;3.70;99.90;;;;;;4421465;32;20070;-78
2024/02/25 03:46:51;;;;;;;0.57;0.57;;;3.70;99.90;;;;;;4425522;32;20532;-78
2024/02/25 03:49:17;;;;;;;0.35;0.35;;;3.70;99.90;;;;;;4424507;32;20094;-79
2024/02/25 03:51:44;;;;;;;0.40;0.40;;;3.70;99.90;;;;;;4423737;32;20092;-79
2024/02/25 03:54:09;;;;;;;0.40;0.40;;;3.80;99.90;;;;;;4425811;32;20061;-77
2024/02/25 03:56:35;;;;;;;0.40;0.40;;;3.90;99.90;;;;;;4425255;32;20123;-78
2024/02/25 03:59:01;;;;;;;0.40;0.40;;;3.90;99.90;;;;;;4423759;32;20077;-78
2024/02/25 04:01:26;;;;;;;0.75;0.75;;;3.90;99.90;;;;;;4424694;32;20402;-78
2024/02/25 04:03:52;;;;;;;0.40;0.40;;;4.00;99.90;;;;;;4422811;32;20073;-78
2024/02/25 04:06:17;;;;;;;0.62;0.62;;;4.00;99.90;;;;;;4424305;32;20081;-78
2024/02/25 04:08:43;;;;;;;4.03;0.93;;;3.90;99.90;;;;;;4425555;32;20423;-77
2024/02/25 04:11:09;;;;;;;0.55;0.50;;;3.80;99.90;;;;;;4424035;32;20465;-79
2024/02/25 04:13:34;;;;;;;0.40;0.40;;;3.60;99.90;;;;;;4424639;32;20093;-79
2024/02/25 04:16:00;;;;;;;1.33;1.23;;;3.60;99.90;;;;;;4424556;32;20081;-79
2024/02/25 04:18:25;;;;;;;0.90;0.90;;;3.50;99.90;;;;;;4422871;32;20444;-79
2024/02/25 04:20:51;;;;;;;0.40;0.40;;;3.40;99.90;;;;;;4425091;32;20096;-77
2024/02/25 04:23:16;;;;;;;0.40;0.40;;;3.40;99.90;;;;;;4424615;32;20411;-79
2024/02/25 04:25:42;;;;;;;0.40;0.40;;;3.40;99.90;;;;;;4424385;32;20090;-78
2024/02/25 04:28:07;;;;;;;7.45;1.10;;;3.30;99.90;;;;;;4425390;32;20078;-78
2024/02/25 04:30:33;;;;;;;0.55;0.55;;;3.20;99.90;;;;;;4425326;32;20097;-78
2024/02/25 04:32:59;;;;;;;0.50;0.50;;;3.10;99.90;;;;;;4424242;32;20159;-79
2024/02/25 04:35:26;;;;;;;0.50;0.50;;;3.10;99.90;;;;;;4425343;32;20081;-78
2024/02/25 04:37:51;;;;;;;0.30;0.30;;;3.10;99.90;;;;;;4425670;32;20498;-77
2024/02/25 04:40:17;;;;;;;0.30;0.30;;;3.20;99.90;;;;;;4426370;32;20566;-79
2024/02/25 04:42:43;;;;;;;0.43;0.43;;;3.20;99.90;;;;;;4425547;32;20190;-78
2024/02/25 04:45:09;;;;;;;0.50;0.50;;;3.30;99.90;;;;;;4423633;32;20569;-78
2024/02/25 04:47:35;;;;;;;0.50;0.50;;;3.20;99.90;;;;;;4425863;32;20141;-79
2024/02/25 04:50:02;;;;;;;0.73;0.73;;;3.10;99.90;;;;;;4423200;32;20099;-77
2024/02/25 04:52:28;;;;;;;0.52;0.52;;;3.10;99.90;;;;;;4423834;32;20501;-79
2024/02/25 04:54:53;;;;;;;0.40;0.40;;;3.10;99.90;;;;;;4424262;32;20137;-79
2024/02/25 04:57:20;;;;;;;0.47;0.47;;;3.00;99.90;;;;;;4424047;32;20066;-78
2024/02/25 04:59:45;;;;;;;0.52;0.52;;;3.10;99.90;;;;;;4422801;32;20136;-77
2024/02/25 05:02:11;;;;;;;2.60;0.55;;;3.00;99.90;;;;;;4423642;32;20092;-79
2024/02/25 05:04:40;;;;;;;0.32;0.32;;;2.90;99.90;;;;;;4424793;32;20082;-78
2024/02/25 05:07:05;;;;;;;0.80;0.80;;;3.00;99.90;;;;;;4422523;32;20562;-79
2024/02/25 05:09:31;;;;;;;0.50;0.50;;;2.90;99.90;;;;;;4422815;32;20121;-79
2024/02/25 05:11:57;;;;;;;0.57;0.57;;;3.00;99.90;;;;;;4423343;32;20080;-72
2024/02/25 05:14:23;;;;;;;0.60;0.60;;;3.00;99.90;;;;;;4423427;32;20134;-75
2024/02/25 05:16:51;;;;;;;0.40;0.40;;;2.90;99.90;;;;;;4423508;32;20061;-75
2024/02/25 05:19:17;;;;;;;0.32;0.32;;;2.80;99.90;;;;;;4422299;32;20132;-71
2024/02/25 05:21:44;;;;;;;0.40;0.40;;;2.80;99.90;;;;;;4425473;32;20475;-71
2024/02/25 05:24:10;;;;;;;1.05;0.70;;;2.90;99.90;;;;;;4423867;32;20084;-71
2024/02/25 05:26:35;;;;;;;0.50;0.50;;;2.90;99.90;;;;;;4423193;32;20082;-71
2024/02/25 05:29:01;;;;;;;1.70;0.70;;;2.90;99.90;;;;;;4422245;32;20065;-74
2024/02/25 05:31:26;;;;;;;0.40;0.40;;;2.80;99.90;;;;;;4422314;32;20073;-74
2024/02/25 05:33:52;;;;;;;0.82;0.82;;;2.80;99.90;;;;;;4424636;32;20085;-75
2024/02/25 05:36:20;;;;;;;0.37;0.37;;;2.80;99.90;;;;;;4420375;32;20078;-75
2024/02/25 05:38:47;;;;;;;2.95;0.80;;;2.80;99.90;;;;;;4420988;32;20132;-75
2024/02/25 05:41:12;;;;;;;0.50;0.50;;;2.80;99.90;;;;;;4421202;32;20116;-75
2024/02/25 05:43:38;;;;;;;0.30;0.30;;;2.80;99.90;;;;;;4419877;32;20077;-75
2024/02/25 05:46:03;;;;;;;0.75;0.75;;;2.70;99.90;;;;;;4421523;32;20093;-75
2024/02/25 05:48:29;;;;;;;0.30;0.30;;;2.80;99.90;;;;;;4422370;32;20081;-75
2024/02/25 05:50:56;;;;;;;0.73;0.73;;;2.80;99.90;;;;;;4421864;32;20683;-75
2024/02/25 05:53:21;;;;;;;0.45;0.45;;;2.70;99.90;;;;;;4424252;32;20518;-75
2024/02/25 05:55:47;;;;;;;0.32;0.32;;;2.70;99.90;;;;;;4423816;32;20073;-75
2024/02/25 05:58:13;;;;;;;0.40;0.40;;;2.70;99.90;;;;;;4423306;32;20136;-75
2024/02/25 06:00:39;;;;;;;0.30;0.30;;;2.80;99.90;;;;;;4421863;32;20077;-75
2024/02/25 06:03:04;;;;;;;0.70;0.57;;;2.80;99.90;;;;;;4423327;32;20069;-74
2024/02/25 06:05:31;;;;;;;0.40;0.40;;;2.60;99.90;;;;;;4423418;32;20083;-75
2024/02/25 06:08:00;;;;;;;0.30;0.30;;;2.50;99.90;;;;;;4422365;32;20085;-75
2024/02/25 06:10:26;;;;;;;0.50;0.50;;;2.50;99.90;;;;;;4423000;32;20092;-75
2024/02/25 06:12:52;;;;;;;0.60;0.60;;;2.60;99.90;;;;;;4421634;32;20155;-75
2024/02/25 06:15:18;;;;;;;0.40;0.40;;;2.60;99.90;;;;;;4422571;32;20074;-75
2024/02/25 06:17:44;;;;;;;0.30;0.30;;;2.70;99.90;;;;;;4423281;32;20142;-75
2024/02/25 06:20:10;;;;;;;0.50;0.50;;;2.70;99.90;;;;;;4423765;32;20521;-75
2024/02/25 06:22:37;;;;;;;0.82;0.65;;;2.80;99.90;;;;;;4423360;32;20451;-75
2024/02/25 06:25:07;;;;;;;1.65;1.08;;;2.70;99.90;;;;;;4422471;32;20081;-75
2024/02/25 06:27:35;;;;;;;0.70;0.70;;;2.70;99.90;;;;;;4425251;32;20068;-75
2024/02/25 06:30:02;;;;;;;0.30;0.30;;;2.60;99.90;;;;;;4420513;32;20521;-75
2024/02/25 06:32:28;;;;;;;0.50;0.50;;;2.70;99.90;;;;;;4424503;32;20078;-75
2024/02/25 06:34:53;;;;;;;0.50;0.50;;;2.70;99.90;;;;;;4423004;32;20448;-75
2024/02/25 06:37:19;;;;;;;0.40;0.40;;;2.70;99.90;;;;;;4422460;32;20085;-73
2024/02/25 06:39:44;;;;;;;0.60;0.60;;;2.70;99.90;;;;;;4422878;32;20140;-72
2024/02/25 06:42:10;;;;;;;0.32;0.32;;;2.60;99.90;;;;;;4422215;32;20082;-71
2024/02/25 06:44:35;;;;;;;0.40;0.40;;;2.50;99.90;;;;;;4420118;32;20119;-73
2024/02/25 06:47:01;;;;;;;0.60;0.60;;;2.50;99.90;;;;;;4419183;32;20110;-72
2024/02/25 06:49:27;;;;;;;0.70;0.70;;;2.50;99.90;;;;;;4422071;32;20077;-77
2024/02/25 06:51:54;;;;;;;1.35;1.00;;;2.60;99.90;;;;;;4422484;32;20065;-78
2024/02/25 06:54:20;;;;;;;0.85;0.80;;;2.60;99.90;;;;;;4424404;32;20082;-79
2024/02/25 06:56:46;;;;;;;0.50;0.50;;;2.50;99.90;;;;;;4422131;32;20160;-79
2024/02/25 06:59:11;;;;;;;0.50;0.50;;;2.50;99.90;;;;;;4421451;32;20073;-79
2024/02/25 07:01:37;;;;;;;0.47;0.47;;;2.50;99.90;;;;;;4422519;32;20583;-78
2024/02/25 07:04:02;;;;;;;1.45;0.77;;;2.50;99.90;;;;;;4423633;32;20081;-78
2024/02/25 07:06:28;;;;;;;1.65;0.55;;;2.60;99.90;;;;;;4423775;32;20082;-79
2024/02/25 07:08:53;;;;;;;0.40;0.40;;;2.60;99.90;;;;;;4422969;32;20089;-80
2024/02/25 07:11:20;;;;;;;6.25;1.80;;;2.70;99.90;;;;;;4423317;32;20568;-79
2024/02/25 07:13:48;;;;;;;0.40;0.40;;;2.70;99.90;;;;;;4422523;32;20087;-79
2024/02/25 07:16:13;;;;;;;0.35;0.35;;;2.70;99.90;;;;;;4410873;32;20126;-76
2024/02/25 07:18:40;;;;;;;0.43;0.43;;;2.80;99.90;;;;;;4427363;32;20085;-79
2024/02/25 07:21:08;;;;;;;0.43;0.43;;;2.80;99.90;;;;;;4425805;32;20517;-79
2024/02/25 07:23:34;;;;;;;0.30;0.30;;;2.80;99.90;;;;;;4424480;32;21563;-80
2024/02/25 07:26:00;;;;;;;0.40;0.40;;;2.90;99.90;;;;;;4409198;32;20514;-80
2024/02/25 07:28:26;;;;;;;2.62;0.85;;;3.20;99.90;;;;;;4424542;32;20077;-79
2024/02/25 07:30:52;;;;;;;1.00;0.93;;;3.30;99.90;;;;;;4423722;32;20066;-77
2024/02/25 07:33:18;;;;;;;0.47;0.47;;;3.30;99.90;;;;;;4425463;32;20078;-76
2024/02/25 07:35:43;;;;;;;0.57;0.57;;;3.20;99.90;;;;;;4428192;32;20085;-77
2024/02/25 07:38:09;;;;;;;0.82;0.47;;;3.20;99.90;;;;;;4425514;32;20120;-79
2024/02/25 07:40:34;;;;;;;0.65;0.65;;;3.20;99.90;;;;;;4424421;32;20073;-78
2024/02/25 07:43:00;;;;;;;0.40;0.40;;;3.20;99.90;;;;;;4425460;32;20078;-77
2024/02/25 07:45:26;;;;;;;0.68;0.68;;;3.20;99.90;;;;;;4426056;32;20085;-78
2024/02/25 07:47:53;;;;;;;0.65;0.65;;;3.20;99.90;;;;;;4424202;32;20081;-78
2024/02/25 07:50:18;;;;;;;0.50;0.50;;;3.20;99.90;;;;;;4425201;32;20073;-71
2024/02/25 07:52:44;;;;;;;0.55;0.55;;;3.30;99.90;;;;;;4420001;32;20102;-72
2024/02/25 07:55:09;;;;;;;0.60;0.60;;;3.40;99.90;;;;;;4423602;32;20078;-72
2024/02/25 07:57:35;;;;;;;0.68;0.68;;;3.50;99.90;;;;;;4424469;32;20753;-72
2024/02/25 08:00:02;;;;;;;0.40;0.40;;;3.60;99.90;;;;;;4423682;32;20081;-78
2024/02/25 08:02:27;;;;;;;0.68;0.68;;;3.70;99.90;;;;;;4428133;32;20085;-77
2024/02/25 08:04:53;;;;;;;0.50;0.50;;;3.80;99.90;;;;;;4427104;32;20061;-77
2024/02/25 08:07:18;;;;;;;0.40;0.40;;;3.80;99.90;;;;;;4428427;32;20097;-78
2024/02/25 08:09:44;;;;;;;0.50;0.50;;;3.90;99.90;;;;;;4424938;32;20077;-79
2024/02/25 08:12:09;;;;;;;1.60;0.90;;;3.80;99.90;;;;;;4425329;32;20443;-78
2024/02/25 08:14:35;;;;;;;1.08;0.85;;;3.90;99.90;;;;;;4424571;32;20086;-78
2024/02/25 08:17:00;;;;;;;0.52;0.52;;;3.90;99.90;;;;;;4426877;32;20457;-79
2024/02/25 08:19:26;;;;;;;0.40;0.40;;;3.90;99.90;;;;;;4425802;32;20087;-78
2024/02/25 08:21:51;;;;;;;0.30;0.30;;;4.00;99.90;;;;;;4424794;32;21665;-80
2024/02/25 08:24:17;;;;;;;0.80;0.80;;;4.00;99.90;;;;;;4424504;32;20081;-79
2024/02/25 08:26:43;;;;;;;0.82;0.82;;;4.10;99.90;;;;;;4424825;32;20180;-78
2024/02/25 08:29:09;;;;;;;0.40;0.40;;;4.20;99.90;;;;;;4411834;32;20538;-77
2024/02/25 08:31:34;;;;;;;0.43;0.43;;;4.30;99.90;;;;;;4424301;32;20082;-79
2024/02/25 08:34:00;;;;;;;0.50;0.50;;;4.40;99.90;;;;;;4425734;32;20517;-79
2024/02/25 08:36:25;;;;;;;0.82;0.80;;;4.40;99.90;;;;;;4424938;32;20080;-81
2024/02/25 08:38:51;;;;;;;0.30;0.30;;;4.50;99.90;;;;;;4423557;32;20505;-78
2024/02/25 08:41:16;;;;;;;0.30;0.30;;;4.50;99.90;;;;;;4423106;32;20998;-79
2024/02/25 08:43:42;;;;;;;0.32;0.32;;;4.60;99.90;;;;;;4423616;32;20090;-79
2024/02/25 08:46:08;;;;;;;0.57;0.57;;;4.60;99.90;;;;;;4423508;32;20506;-77
2024/02/25 08:48:33;;;;;;;0.60;0.60;;;4.70;99.90;;;;;;4423247;32;20062;-79
2024/02/25 08:50:58;;;;;;;3.47;1.60;;;4.80;99.90;;;;;;4423783;32;20444;-79
2024/02/25 08:53:25;;;;;;;0.50;0.50;;;5.00;99.90;;;;;;4421489;32;20124;-78
2024/02/25 08:55:51;;;;;;;0.50;0.50;;;5.10;99.90;;;;;;4423379;32;20510;-79
2024/02/25 08:58:16;;;;;;;0.30;0.30;;;5.10;99.90;;;;;;4422423;32;20076;-78
2024/02/25 09:00:44;;;;;;;1.02;0.93;;;5.00;99.90;;;;;;4423338;32;20081;-78
2024/02/25 09:03:11;;;;;;;0.62;0.62;;;5.00;99.90;;;;;;4421753;32;20081;-79
2024/02/25 09:05:38;;;;;;;0.35;0.35;;;5.20;99.90;;;;;;4425498;32;20549;-78
2024/02/25 09:08:03;;;;;;;0.40;0.40;;;5.30;99.90;;;;;;4423373;32;20301;-76
2024/02/25 09:10:31;;;;;;;0.52;0.52;;;5.50;99.90;;;;;;4422554;32;20077;-77
2024/02/25 09:12:57;;;;;;;0.57;0.52;;;5.60;99.90;;;;;;4422934;32;20081;-80
2024/02/25 09:15:23;;;;;;;2.30;1.02;;;5.90;99.90;;;;;;4410088;32;20073;-80
2024/02/25 09:17:48;;;;;;;0.50;0.50;;;6.20;99.90;;;;;;4426642;32;20391;-79
2024/02/25 09:20:14;;;;;;;0.40;0.40;;;6.50;99.90;;;;;;4422623;32;20070;-79
2024/02/25 09:22:40;;;;;;;0.43;0.43;;;6.50;99.90;;;;;;4423202;32;20085;-80
2024/02/25 09:25:05;;;;;;;0.65;0.65;;;6.70;99.90;;;;;;4422442;32;20085;-80
2024/02/25 09:27:31;;;;;;;0.40;0.40;;;6.70;99.90;;;;;;4424001;32;20093;-80
2024/02/25 09:29:56;;;;;;;0.40;0.40;;;6.90;99.90;;;;;;4422996;32;20085;-79
2024/02/25 09:32:23;;;;;;;0.30;0.30;;;7.00;99.90;;;;;;4425141;32;20069;-81
2024/02/25 09:34:48;;;;;;;0.43;0.43;;;7.20;99.90;;;;;;4423529;32;20654;-81
2024/02/25 09:37:14;;;;;;;0.60;0.60;;;7.30;99.90;;;;;;4424005;32;20101;-79
2024/02/25 09:39:40;;;;;;;0.47;0.47;;;7.40;99.90;;;;;;4422890;32;20517;-79
2024/02/25 09:42:07;;;;;;;1.08;0.70;;;7.60;99.90;;;;;;4422463;32;20168;-79
2024/02/25 09:44:35;;;;;;;0.50;0.50;;;7.80;99.90;;;;;;4422096;32;20065;-80
2024/02/25 09:47:01;;;;;;;0.20;0.20;;;8.00;99.90;;;;;;4424049;32;20061;-80
2024/02/25 09:49:28;;;;;;;0.50;0.50;;;8.20;99.90;;;;;;4421072;32;20434;-78
2024/02/25 09:51:54;;;;;;;0.28;0.28;;;8.40;99.90;;;;;;4421855;32;20781;-81
2024/02/25 09:54:20;;;;;;;0.57;0.57;;;8.50;99.90;;;;;;4423586;32;20431;-80
2024/02/25 09:56:49;;;;;;;0.47;0.47;;;8.70;99.90;;;;;;4425393;32;20061;-82
2024/02/25 09:59:15;;;;;;;0.52;0.47;;;8.90;99.90;;;;;;4425105;32;20185;-80
2024/02/25 10:04:07;;;;;;;0.40;0.40;;;9.20;99.90;;;;;;4424330;32;20539;-80
2024/02/25 10:06:37;;;;;;;0.30;0.30;;;9.40;99.90;;;;;;4426100;32;20097;-82
2024/02/25 10:09:03;;;;;;;0.43;0.43;;;9.40;99.90;;;;;;4423037;32;20207;-79
2024/02/25 10:11:28;;;;;;;1.00;0.62;;;9.60;99.90;;;;;;4423111;32;20599;-77
2024/02/25 10:13:56;;;;;;;0.73;0.73;;;9.90;99.90;;;;;;4423204;32;20530;-78
2024/02/25 10:16:22;;;;;;;0.35;0.35;;;10.10;99.90;;;;;;4423767;32;20135;-79
2024/02/25 10:18:50;;;;;;;0.50;0.50;;;10.30;99.90;;;;;;4422851;32;20734;-78
2024/02/25 10:21:16;;;;;;;0.50;0.50;;;10.40;99.90;;;;;;4422165;32;20069;-78
2024/02/25 10:23:41;;;;;;;0.35;0.35;;;10.60;99.90;;;;;;4423106;32;20080;-78
2024/02/25 10:26:18;;;;;;;0.77;0.75;;;10.50;99.90;;;;;;4422672;32;20077;-78
2024/02/25 10:28:43;;;;;;;0.43;0.43;;;10.70;99.90;;;;;;4421775;32;20070;-78
2024/02/25 10:31:11;;;;;;;2.37;0.88;;;10.80;99.90;;;;;;4421215;32;20069;-77
2024/02/25 10:33:38;;;;;;;0.43;0.43;;;11.10;99.90;;;;;;4422248;32;20073;-78
2024/02/25 10:36:09;;;;;;;0.43;0.43;;;11.10;99.90;;;;;;4421704;32;20081;-79
2024/02/25 10:38:37;;;;;;;0.30;0.30;;;11.10;99.90;;;;;;4407082;32;20204;-78
2024/02/25 10:41:04;;;;;;;0.73;0.73;;;11.10;99.90;;;;;;4421155;32;20128;-77
2024/02/25 10:43:32;;;;;;;0.40;0.40;;;11.50;99.90;;;;;;4422513;32;20084;-80
2024/02/25 10:46:00;;;;;;;0.90;0.65;;;11.40;99.90;;;;;;4422464;32;20538;-79
2024/02/25 10:48:29;;;;;;;0.40;0.40;;;11.20;99.90;;;;;;4419968;32;21754;-80
2024/02/25 10:50:57;;;;;;;0.30;0.30;;;11.20;99.90;;;;;;4422412;32;20065;-77
2024/02/25 10:53:28;;;;;;;0.47;0.47;;;11.20;99.90;;;;;;4424262;32;20579;-79
2024/02/25 10:55:57;;;;;;;0.50;0.50;;;11.40;99.90;;;;;;4426014;32;20438;-77
2024/02/25 10:58:23;;;;;;;0.30;0.30;;;11.50;99.90;;;;;;4426712;32;20691;-77
2024/02/25 11:00:49;;;;;;;0.20;0.20;;;11.50;99.90;;;;;;4423462;32;20089;-79
2024/02/25 11:03:16;;;;;;;0.30;0.30;;;11.50;99.90;;;;;;4424869;32;20415;-80
2024/02/25 11:05:41;;;;;;;0.30;0.30;;;11.50;99.90;;;;;;4424944;32;20129;-78
2024/02/25 11:08:09;;;;;;;0.22;0.22;;;11.60;99.90;;;;;;4426001;32;20066;-79
2024/02/25 11:10:37;;;;;;;0.40;0.40;;;11.60;99.90;;;;;;4426056;32;20536;-80
2024/02/25 11:13:03;;;;;;;0.20;0.20;;;11.70;99.90;;;;;;4426522;32;20417;-78
2024/02/25 11:15:30;;;;;;;0.30;0.30;;;11.60;99.90;;;;;;4425487;32;20093;-79
2024/02/25 11:17:56;;;;;;;0.30;0.30;;;11.80;99.90;;;;;;4425645;32;20520;-80
2024/02/25 11:20:24;;;;;;;0.20;0.20;;;11.90;99.90;;;;;;4426568;32;20068;-78
2024/02/25 11:22:50;;;;;;;0.30;0.30;;;12.10;99.90;;;;;;4424755;32;20078;-79
2024/02/25 11:25:34;;;;;;;0.47;0.47;;;12.40;99.90;;;;;;4424597;32;20420;-76
2024/02/25 11:28:05;;;;;;;0.37;0.37;;;12.70;99.90;;;;;;4423646;32;20144;-78
2024/02/25 11:30:36;;;;;;;0.43;0.43;;;12.50;99.90;;;;;;4425525;32;20078;-74
2024/02/25 11:33:02;;;;;;;;;;;12.90;99.90;;;;;;4424641;32;20077;-75
2024/02/25 11:35:30;;;;;;;0.30;0.30;;;13.00;99.90;;;;;;4422813;32;19953;-75
2024/02/25 11:37:58;;;;;;;0.30;0.30;;;13.40;99.90;;;;;;4419802;32;20787;-75
2024/02/25 11:40:23;;;;;;;0.30;0.30;;;13.60;99.90;;;;;;4422659;32;20081;-76
2024/02/25 11:42:49;;;;;;;0.25;0.25;;;13.70;99.90;;;;;;4422476;32;20074;-74
2024/02/25 11:45:14;;;;;;;8.27;0.75;;;13.80;99.90;;;;;;4424989;32;20522;-76
2024/02/25 11:47:40;;;;;;;0.30;0.30;;;13.50;99.50;;;;;;4423301;32;20107;-75
2024/02/25 11:50:07;;;;;;;0.40;0.40;;;13.50;99.80;;;;;;4422664;32;20096;-74
2024/02/25 11:52:33;;;;;;;0.30;0.30;;;13.60;99.90;;;;;;4420383;32;101070;-75
2024/02/25 11:54:58;;;;;;;0.40;0.40;;;13.70;99.90;;;;;;4424987;32;20097;-74
2024/02/25 11:57:25;;;;;;;0.40;0.40;;;13.70;99.50;;;;;;4425124;32;20592;-74
2024/02/25 11:59:51;;;;;;;0.30;0.30;;;14.00;99.90;;;;;;4423528;32;20077;-74
2024/02/25 12:02:17;;;;;;;0.45;0.45;;;14.40;99.20;;;;;;4423514;32;20097;-74
2024/02/25 12:04:44;;;;;;;0.30;0.30;;;14.40;97.90;;;;;;4424398;32;20069;-75
2024/02/25 12:07:10;;;;;;;0.40;0.40;;;14.80;97.80;;;;;;4424155;32;20529;-74
2024/02/25 12:09:35;;;;;;;0.40;0.40;;;15.20;98.00;;;;;;4409976;32;20097;-76
2024/02/25 12:12:01;;;;;;;0.40;0.40;;;15.40;97.30;;;;;;4423099;32;20077;-76
2024/02/25 12:14:30;;;;;;;0.30;0.30;;;15.40;96.30;;;;;;4422800;32;20175;-76
2024/02/25 12:16:56;;;;;;;0.40;0.40;;;14.80;96.50;;;;;;4425445;32;20430;-79
2024/02/25 12:19:22;;;;;;;0.37;0.37;;;14.90;95.70;;;;;;4425626;32;20089;-75
2024/02/25 12:21:49;;;;;;;0.43;0.37;;;14.50;96.10;;;;;;4425206;32;20156;-74
2024/02/25 12:24:17;;;;;;;0.32;0.32;;;14.50;95.50;;;;;;4424059;32;20525;-75
2024/02/25 12:26:58;;;;;;;0.50;0.50;;;14.80;95.80;;;;;;4422570;32;20120;-75
2024/02/25 12:29:26;;;;;;;0.30;0.30;;;15.10;95.80;;;;;;4421830;32;21182;-78
2024/02/25 12:31:54;;;;;;;0.30;0.30;;;15.10;95.10;;;;;;4412863;32;20093;-78
2024/02/25 12:34:20;;;;;;;0.35;0.35;;;15.00;94.80;;;;;;4423275;32;20078;-78
2024/02/25 12:36:47;;;;;;;0.30;0.30;;;14.60;95.20;;;;;;4426288;32;20394;-81
2024/02/25 12:39:18;;;;;;;0.40;0.40;;;14.60;95.30;;;;;;4421715;32;20563;-79
2024/02/25 12:41:45;;;;;;;;;;;15.10;94.90;;;;;;4421814;32;20121;-79
2024/02/25 12:44:11;;;;;;;0.40;0.40;;;15.60;94.40;;;;;;4421002;32;19952;-79
2024/02/25 12:46:37;;;;;;;0.40;0.40;;;16.30;93.80;;;;;;4423393;32;20085;-78
2024/02/25 12:49:14;;;;;;;0.30;0.30;;;16.60;92.30;;;;;;4424571;32;20847;-80
2024/02/25 12:51:40;;;;;;;0.40;0.40;;;16.30;92.30;;;;;;4424083;32;20671;-79
2024/02/25 12:54:10;;;;;;;0.50;0.50;;;16.10;92.70;;;;;;4420378;32;20073;-78